Time;durP1;ratioP1;P1;durP2;ratioP2;P2;SDS_P1;SDS_P2;PMS_P1;PMS_P2;Temp;Humidity;BMP_temperature;BMP_pressure;BME280_temperature;BME280_humidity;BME280_pressure;Samples;Min_cycle;Max_cycle;Signal;HPM_P1;HPM_P2
2022/06/01 00:01:29;;;;;;;;;;;;;;;23.87;69.33;101322.78;5068305;28;20040;-81
2022/06/01 00:03:54;;;;;;;7.60;6.80;;;;;;;23.78;69.56;101306.72;5065633;28;19908;-81
2022/06/01 00:06:20;;;;;;;;;;;;;;;23.87;69.38;101316.56;5067884;28;20478;-81
2022/06/01 00:08:45;;;;;;;8.43;6.50;;;;;;;23.81;69.39;101298.72;5072663;28;19912;-81
2022/06/01 00:11:11;;;;;;;;;;;;;;;23.85;69.41;101308.53;5072842;28;20745;-82
2022/06/01 00:13:37;;;;;;;7.38;6.53;;;;;;;23.76;69.50;101295.13;5069625;28;19916;-82
2022/06/01 00:16:02;;;;;;;;;;;;;;;23.85;69.29;101304.97;5067947;28;20047;-82
2022/06/01 00:18:28;;;;;;;9.60;6.80;;;;;;;23.80;69.39;101310.28;5069818;28;19912;-82
2022/06/01 00:20:53;;;;;;;;;;;;;;;23.83;69.25;101309.41;5087420;28;20062;-79
2022/06/01 00:23:20;;;;;;;7.53;6.55;;;;;;;23.81;69.38;101300.50;5074732;28;19912;-81
2022/06/01 00:25:46;;;;;;;7.28;6.55;;;;;;;23.78;69.46;101304.94;5067621;28;20109;-82
2022/06/01 00:28:12;;;;;;;7.43;6.10;;;;;;;23.80;69.35;101298.72;5072380;28;20135;-82
2022/06/01 00:30:37;;;;;;;;;;;;;;;23.83;69.31;101299.63;5068474;28;20033;-82
2022/06/01 00:33:03;;;;;;;7.97;6.25;;;;;;;23.80;69.33;101304.94;5050352;28;19913;-83
2022/06/01 00:35:29;;;;;;;;;;;;;;;23.82;69.33;101299.63;5061584;28;20050;-83
2022/06/01 00:37:54;;;;;;;8.15;6.30;;;;;;;23.78;69.35;101299.59;5059610;28;20293;-82
2022/06/01 00:40:21;;;;;;;;;;;;;;;23.81;69.27;101290.72;5069675;28;20032;-82
2022/06/01 00:42:49;;;;;;;9.05;6.43;;;;;;;23.76;69.21;101290.69;5069806;28;20317;-82
2022/06/01 00:45:22;;;;;;;8.00;6.60;;;;;;;23.75;69.34;101290.66;5069233;28;20107;-82
2022/06/01 00:47:49;;;;;;;8.52;6.03;;;;;;;23.75;69.46;101283.56;5062655;28;20043;-83
2022/06/01 00:50:21;;;;;;;8.10;6.50;;;;;;;23.63;69.23;101258.56;5069104;28;20082;-83
2022/06/01 00:53:11;;;;;;;7.45;6.32;;;;;;;23.76;69.34;101276.47;5070233;28;20020;-83
2022/06/01 00:55:43;;;;;;;7.68;6.50;;;;;;;23.75;69.33;101277.34;5073405;28;20029;-82
2022/06/01 00:58:15;;;;;;;7.38;6.63;;;;;;;23.75;69.32;101277.34;5060406;28;20016;-83
2022/06/01 01:00:42;;;;;;;9.48;6.15;;;;;;;23.74;69.29;101278.19;5067521;28;20025;-83
2022/06/01 01:03:10;;;;;;;7.25;6.15;;;;;;;23.69;69.07;101263.94;5068901;28;20473;-83
2022/06/01 01:05:37;;;;;;;8.05;6.43;;;;;;;23.62;69.40;101254.09;5068909;28;20134;-83
2022/06/01 01:08:04;;;;;;;8.93;6.30;;;;;;;23.74;69.33;101273.75;5056417;28;20025;-82
2022/06/01 01:10:30;;;;;;;8.90;6.40;;;;;;;23.73;69.40;101269.31;5064505;28;20504;-83
2022/06/01 01:12:58;;;;;;;7.63;6.28;;;;;;;23.67;69.28;101249.72;5077106;28;20056;-82
2022/06/01 01:15:36;;;;;;;6.63;6.03;;;;;;;23.45;69.36;101206.88;5042824;28;20115;-83
2022/06/01 01:18:06;;;;;;;7.10;6.05;;;;;;;23.62;69.27;101236.34;5057380;28;20490;-82
2022/06/01 01:20:34;;;;;;;8.02;6.18;;;;;;;23.68;69.22;101246.16;5069732;28;20497;-82
2022/06/01 01:23:19;;;;;;;7.72;6.55;;;;;;;23.70;69.30;101255.94;5069167;28;20410;-82
2022/06/01 01:25:44;;;;;;;8.35;6.28;;;;;;;23.62;69.21;101247.00;5063144;28;20486;-82
2022/06/01 01:28:10;;;;;;;;;;;;;;;23.74;69.13;101249.75;5064535;28;20027;-82
2022/06/01 01:30:38;;;;;;;8.82;6.40;;;;;;;23.69;69.32;101248.84;5069527;28;19916;-82
2022/06/01 01:33:09;;;;;;;9.32;6.25;;;;;;;23.68;69.43;101249.69;5068990;28;20132;-82
2022/06/01 01:35:35;;;;;;;8.38;6.25;;;;;;;23.61;69.24;101234.53;5065270;28;20016;-82
2022/06/01 01:38:01;;;;;;;;;;;;;;;23.72;68.98;101247.94;5071198;28;20037;-82
2022/06/01 01:40:27;;;;;;;7.05;5.70;;;;;;;23.65;68.89;101240.81;5069487;28;20385;-82
2022/06/01 01:42:53;;;;;;;;;;;;;;;23.71;69.16;101243.53;5069479;28;20086;-82
2022/06/01 01:45:26;;;;;;;9.15;6.10;;;;;;;23.67;69.24;101241.72;5068305;28;19967;-82
2022/06/01 01:47:52;;;;;;;7.50;5.70;;;;;;;23.60;69.27;101229.19;5067530;28;20078;-82
2022/06/01 01:50:19;;;;;;;6.88;5.60;;;;;;;23.66;69.17;101242.56;5065443;28;20032;-82
2022/06/01 01:52:45;;;;;;;6.75;5.90;;;;;;;23.66;69.00;101231.91;5061180;28;20143;-82
2022/06/01 01:55:20;;;;;;;8.68;6.40;;;;;;;23.65;69.25;101233.69;5058653;28;20067;-81
2022/06/01 01:58:20;;;;;;;7.35;5.80;;;;;;;23.65;69.13;101236.34;5064700;28;20012;-82
2022/06/01 02:00:51;;;;;;;7.47;6.13;;;;;;;23.57;69.16;101230.94;5076302;28;20020;-82
2022/06/01 02:03:22;;;;;;;8.02;5.90;;;;;;;23.64;69.11;101236.34;5061197;28;20039;-82
2022/06/01 02:06:04;;;;;;;6.63;5.90;;;;;;;23.64;69.13;101239.00;5062975;28;20144;-81
2022/06/01 02:08:32;;;;;;;7.72;6.07;;;;;;;23.63;69.01;101240.78;5064764;28;20418;-82
2022/06/01 02:13:53;;;;;;;8.05;6.13;;;;;;;23.62;68.97;101236.34;5067468;28;20512;-81
2022/06/01 02:16:20;;;;;;;7.65;6.30;;;;;;;23.62;69.00;101247.00;5071428;28;20086;-81
2022/06/01 02:18:48;;;;;;;5.97;5.38;;;;;;;23.47;68.91;101217.53;5066291;28;20481;-82
2022/06/01 02:21:18;;;;;;;6.65;5.95;;;;;;;23.54;68.98;101238.94;5068577;28;20119;-82
2022/06/01 02:23:44;;;;;;;6.43;5.85;;;;;;;23.55;68.97;101237.16;5072296;28;20047;-82
2022/06/01 02:26:10;;;;;;;7.28;5.80;;;;;;;23.59;69.09;101241.63;5070816;28;20032;-82
2022/06/01 02:28:36;;;;;;;;;;;;;;;23.64;68.89;101247.88;5073507;28;20024;-82
2022/06/01 02:31:03;;;;;;;6.88;5.88;;;;;;;23.50;69.10;101233.56;5062140;28;19913;-82
2022/06/01 02:33:33;;;;;;;7.95;5.95;;;;;;;23.58;69.01;101247.88;5071343;28;20510;-82
2022/06/01 02:36:00;;;;;;;9.15;5.80;;;;;;;23.51;69.05;101238.00;5087914;28;20090;-82
2022/06/01 02:38:40;;;;;;;10.32;5.53;;;;;;;23.58;69.14;101238.09;5072646;28;20012;-82
2022/06/01 02:41:06;;;;;;;9.50;5.43;;;;;;;23.55;68.97;101237.16;5066837;28;20462;-82
2022/06/01 02:43:31;;;;;;;;;;;;;;;23.61;69.09;101247.00;5066742;28;20099;-82
2022/06/01 02:45:57;;;;;;;6.88;5.95;;;;;;;23.44;69.04;101220.19;5074031;28;19915;-82
2022/06/01 02:48:22;;;;;;;;;;;;;;;23.60;68.89;101242.53;5073712;28;20048;-81
2022/06/01 02:50:48;;;;;;;8.70;5.60;;;;;;;23.48;69.12;101232.66;5065581;28;19919;-82
2022/06/01 02:53:13;;;;;;;;;;;;;;;23.59;69.01;101244.31;5073667;28;20055;-83
2022/06/01 02:55:39;;;;;;;6.20;5.45;;;;;;;23.55;69.00;101243.38;5071549;28;20335;-82
2022/06/01 02:58:05;;;;;;;6.00;5.43;;;;;;;23.54;69.19;101240.72;5065636;28;20024;-82
2022/06/01 03:00:37;;;;;;;7.75;5.65;;;;;;;23.42;68.98;101224.63;5067283;28;20550;-81
2022/06/01 03:03:04;;;;;;;7.55;5.60;;;;;;;23.53;69.25;101242.47;5070945;28;20028;-82
2022/06/01 03:05:33;;;;;;;6.32;5.72;;;;;;;23.52;69.11;101248.69;5071263;28;20421;-83
2022/06/01 03:08:00;;;;;;;7.70;5.78;;;;;;;23.51;69.12;101238.91;5078974;28;20033;-82
2022/06/01 03:10:26;;;;;;;7.47;5.47;;;;;;;23.49;68.91;101235.31;5055232;28;20056;-82
2022/06/01 03:12:53;;;;;;;6.28;5.35;;;;;;;23.50;69.11;101244.25;5075029;28;20032;-82
2022/06/01 03:15:20;;;;;;;6.13;5.47;;;;;;;23.48;69.09;101249.53;5057431;28;20037;-82
2022/06/01 03:17:46;;;;;;;14.65;5.85;;;;;;;23.48;69.33;101246.00;5076277;28;20475;-82
2022/06/01 03:20:12;;;;;;;;;;;;;;;23.55;69.14;101250.50;5076795;28;20032;-82
2022/06/01 03:22:40;;;;;;;6.65;5.97;;;;;;;23.50;69.14;101249.56;5071908;28;19918;-82
2022/06/01 03:25:08;;;;;;;7.60;6.07;;;;;;;23.50;69.18;101258.44;5070937;28;20089;-82
2022/06/01 03:27:34;;;;;;;6.90;5.90;;;;;;;23.49;69.35;101253.09;5070621;28;20082;-82
2022/06/01 03:29:59;;;;;;;;;;;;;;;23.52;69.28;101256.69;5069901;28;20035;-81
2022/06/01 03:32:25;;;;;;;6.13;5.35;;;;;;;23.49;69.40;101261.09;5073630;28;19912;-82
2022/06/01 03:34:50;;;;;;;;;;;;;;;23.51;69.36;101256.66;5070891;28;20480;-82
2022/06/01 03:37:16;;;;;;;7.53;5.35;;;;;;;23.47;69.36;101252.19;5073504;28;19920;-82
2022/06/01 03:39:41;;;;;;;;;;;;;;;23.49;69.27;101261.97;5070938;28;20020;-82
2022/06/01 03:42:07;;;;;;;6.07;5.40;;;;;;;23.42;69.33;101257.50;5062466;28;20058;-82
2022/06/01 03:47:17;;;;;;;6.50;5.70;;;;;;;23.41;69.50;101270.78;5067758;28;20046;-82
2022/06/01 03:49:42;;;;;;;;;;;;;;;23.48;69.32;101273.53;5069562;28;20478;-83
2022/06/01 03:52:09;;;;;;;6.97;5.60;;;;;;;23.45;69.54;101278.84;5063841;28;19986;-82
2022/06/01 03:54:35;;;;;;;6.82;5.82;;;;;;;23.45;69.44;101275.28;5070638;28;20048;-83
2022/06/01 03:57:02;;;;;;;6.53;5.90;;;;;;;23.45;69.57;101283.28;5071372;28;20478;-82
2022/06/01 03:59:30;;;;;;;6.28;5.68;;;;;;;23.43;69.64;101275.28;5071200;28;20051;-83
2022/06/01 04:01:55;;;;;;;7.93;6.00;;;;;;;23.38;69.51;101271.66;5070003;28;20028;-83
2022/06/01 04:04:21;;;;;;;;;;;;;;;23.47;69.35;101274.41;5063393;28;20021;-82
2022/06/01 04:06:46;;;;;;;6.63;5.43;;;;;;;23.43;69.43;101277.94;5072606;28;19912;-83
2022/06/01 04:09:12;;;;;;;6.90;6.03;;;;;;;23.45;69.49;101277.94;5069942;28;20478;-83
2022/06/01 04:11:37;;;;;;;6.47;5.57;;;;;;;23.05;69.57;101216.28;5071312;28;20402;-83
2022/06/01 04:14:03;;;;;;;;;;;;;;;23.47;69.48;101278.84;5065992;28;20132;-83
2022/06/01 04:16:28;;;;;;;7.65;5.72;;;;;;;23.42;69.68;101289.47;5061491;28;20366;-82
2022/06/01 04:18:54;;;;;;;;;;;;;;;23.46;69.65;101285.97;5072331;28;20558;-83
2022/06/01 04:21:23;;;;;;;6.43;5.45;;;;;;;23.43;69.62;101288.63;5065280;28;20003;-83
2022/06/01 04:23:50;;;;;;;7.38;5.72;;;;;;;23.35;69.57;101283.19;5075989;28;20467;-83
2022/06/01 04:26:16;;;;;;;7.15;6.25;;;;;;;23.44;69.71;101298.38;5068136;28;20028;-83
2022/06/01 04:28:42;;;;;;;;;;;;;;;23.47;69.68;101302.84;5071105;28;20024;-83
2022/06/01 04:31:07;;;;;;;6.53;5.53;;;;;;;23.43;69.49;101296.59;5065940;28;19912;-83
2022/06/01 04:33:33;;;;;;;;;;;;;;;23.46;69.47;101299.28;5071145;28;20016;-82
2022/06/01 04:35:59;;;;;;;7.15;5.55;;;;;;;23.43;69.63;101298.34;5071177;28;20377;-83
2022/06/01 04:38:26;;;;;;;7.22;5.80;;;;;;;23.37;69.61;101291.22;5070816;28;20031;-83
2022/06/01 04:40:51;;;;;;;6.35;5.57;;;;;;;23.43;69.75;101303.69;5075535;28;20029;-82
2022/06/01 04:43:18;;;;;;;;;;;;;;;23.47;69.53;101305.50;5071364;28;20197;-82
2022/06/01 04:45:44;;;;;;;7.40;5.68;;;;;;;23.44;69.61;101300.16;5083733;28;19998;-82
2022/06/01 04:48:09;;;;;;;;;;;;;;;23.47;69.64;101302.84;5072669;28;20103;-83
2022/06/01 04:50:39;;;;;;;6.85;5.60;;;;;;;23.31;69.68;101285.81;5066271;28;19915;-83
2022/06/01 04:53:04;;;;;;;7.50;5.40;;;;;;;23.34;69.51;101293.84;5064237;28;20037;-83
2022/06/01 04:55:30;;;;;;;;;;;;;;;23.47;69.50;101310.84;5065483;28;20060;-82
2022/06/01 04:57:55;;;;;;;5.85;5.05;;;;;;;23.44;69.71;101309.03;5070204;28;19916;-81
2022/06/01 05:00:22;;;;;;;;;;;;;;;23.47;69.69;101314.38;5066289;28;20501;-80
2022/06/01 05:02:47;;;;;;;5.28;4.78;;;;;;;23.45;69.69;101324.19;5058864;28;19970;-80
2022/06/01 05:05:13;;;;;;;;;;;;;;;23.49;69.71;101315.28;5057658;28;20033;-81
2022/06/01 05:07:38;;;;;;;5.15;4.65;;;;;;;23.44;69.68;101317.03;5087902;28;19912;-81
2022/06/01 05:10:04;;;;;;;;;;;;;;;23.49;69.71;101331.28;5070624;28;20669;-81
2022/06/01 05:12:29;;;;;;;4.82;4.40;;;;;;;23.45;69.70;101329.50;5061691;28;20401;-80
2022/06/01 05:14:55;;;;;;;4.88;4.43;;;;;;;23.32;69.71;101307.13;5067672;28;20098;-80
2022/06/01 05:17:20;;;;;;;5.03;4.63;;;;;;;23.44;69.79;101324.16;5060661;28;20032;-81
2022/06/01 05:19:47;;;;;;;5.75;5.07;;;;;;;23.46;69.69;101341.94;5071545;28;20143;-80
2022/06/01 05:22:12;;;;;;;;;;;;;;;23.53;69.58;101342.88;5060306;28;20465;-81
2022/06/01 05:24:39;;;;;;;5.10;4.60;;;;;;;23.48;69.67;101347.28;5068225;28;19912;-81
2022/06/01 05:27:06;;;;;;;4.95;4.47;;;;;;;23.45;69.65;101337.50;5059807;28;20028;-80
2022/06/01 05:29:32;;;;;;;5.18;4.68;;;;;;;23.37;69.75;101331.19;5078504;28;20024;-80
2022/06/01 05:31:57;;;;;;;;;;;;;;;23.51;69.70;101345.53;5073032;28;20030;-79
2022/06/01 05:34:23;;;;;;;4.97;4.57;;;;;;;23.46;69.75;101343.72;5069281;28;19914;-79
2022/06/01 05:36:48;;;;;;;;;;;;;;;23.53;69.58;101348.22;5072147;28;20470;-78
2022/06/01 05:39:14;;;;;;;5.63;5.13;;;;;;;23.49;69.61;101336.63;5072693;28;19913;-80
2022/06/01 05:41:40;;;;;;;;;;;;;;;23.53;69.72;101335.78;5074868;28;20477;-79
2022/06/01 05:44:06;;;;;;;4.88;4.47;;;;;;;23.47;69.80;101333.03;5075363;28;19980;-79
2022/06/01 05:46:35;;;;;;;4.90;4.50;;;;;;;23.49;69.77;101333.97;5060162;28;20025;-80
2022/06/01 05:49:02;;;;;;;5.32;4.47;;;;;;;23.44;69.71;101333.03;5073448;28;20082;-80
2022/06/01 05:51:28;;;;;;;4.97;4.45;;;;;;;23.50;69.72;101338.44;5067058;28;20363;-80
2022/06/01 05:53:53;;;;;;;;;;;;;;;23.54;69.60;101339.38;5063354;28;20028;-80
2022/06/01 05:56:19;;;;;;;5.53;4.82;;;;;;;23.41;69.74;101322.34;5065574;28;19912;-80
2022/06/01 05:58:45;;;;;;;;;;;;;;;23.54;69.55;101336.69;5065296;28;20445;-80
2022/06/01 06:01:11;;;;;;;6.97;4.95;;;;;;;23.45;69.60;101321.50;5075406;28;19935;-79
2022/06/01 06:03:36;;;;;;;;;;;;;;;23.53;69.71;101329.56;5067141;28;20478;-81
2022/06/01 06:06:12;;;;;;;5.53;4.80;;;;;;;23.44;69.79;101324.16;5066214;28;19908;-79
2022/06/01 06:08:38;;;;;;;6.75;4.70;;;;;;;23.45;69.70;101323.25;5070694;28;20082;-79
2022/06/01 06:11:06;;;;;;;5.82;4.93;;;;;;;23.46;69.84;101320.63;5076259;28;20028;-77
2022/06/01 06:13:33;;;;;;;5.68;5.05;;;;;;;23.52;69.77;101328.69;5069839;28;20500;-80
2022/06/01 06:15:59;;;;;;;5.63;5.10;;;;;;;23.53;69.74;101330.44;5057826;28;20052;-78
2022/06/01 06:18:25;;;;;;;;;;;;;;;23.56;69.78;101327.81;5068529;28;20051;-79
2022/06/01 06:20:51;;;;;;;5.88;5.28;;;;;;;23.50;69.78;101322.44;5066825;28;19935;-79
2022/06/01 06:23:16;;;;;;;;;;;;;;;23.56;69.59;101325.16;5070049;28;20025;-79
2022/06/01 06:25:42;;;;;;;7.28;4.53;;;;;;;23.54;69.58;101328.69;5069527;28;20362;-79
2022/06/01 06:28:09;;;;;;;;;;;;;;;23.57;69.73;101324.25;5070709;28;20254;-80
2022/06/01 06:30:36;;;;;;;5.20;4.70;;;;;;;23.55;69.69;101327.81;5075205;28;20369;-78
2022/06/01 06:33:02;;;;;;;5.57;4.97;;;;;;;23.53;69.85;101327.78;5067040;28;20032;-80
2022/06/01 06:35:27;;;;;;;;;;;;;;;23.56;69.91;101326.94;5068698;28;20101;-78
2022/06/01 06:37:52;;;;;;;4.93;4.53;;;;;;;23.48;69.88;101326.84;5071629;28;19923;-80
2022/06/01 06:40:18;;;;;;;;;;;;;;;23.56;69.82;101327.81;5069965;28;20024;-80
2022/06/01 06:42:44;;;;;;;5.22;4.72;;;;;;;23.49;69.83;101325.97;5065942;28;19912;-80
2022/06/01 06:45:10;;;;;;;;;;;;;;;23.55;69.85;101327.81;5068053;28;20033;-80
2022/06/01 06:47:35;;;;;;;5.63;4.97;;;;;;;23.51;69.93;101326.88;5065361;28;19916;-80
2022/06/01 06:50:01;;;;;;;;;;;;;;;23.56;70.10;101332.28;5070224;28;20044;-80
2022/06/01 06:52:27;;;;;;;5.53;4.85;;;;;;;23.50;70.03;101325.09;5075520;28;19916;-79
2022/06/01 06:55:04;;;;;;;;;;;;;;;23.58;69.91;101326.06;5064767;28;20458;-80
2022/06/01 06:57:30;;;;;;;5.65;5.15;;;;;;;23.53;69.90;101329.56;5065246;28;19913;-80
2022/06/01 06:59:55;;;;;;;;;;;;;;;23.59;69.93;101332.28;5066125;28;20157;-80
2022/06/01 07:02:21;;;;;;;5.68;5.10;;;;;;;23.53;70.25;101335.78;5067107;28;19912;-80
2022/06/01 07:04:47;;;;;;;6.45;4.95;;;;;;;23.57;70.13;101328.72;5073044;28;20624;-80
2022/06/01 07:07:13;;;;;;;5.88;5.03;;;;;;;23.55;70.21;101328.69;5067149;28;20101;-80
2022/06/01 07:09:39;;;;;;;5.57;5.07;;;;;;;23.55;70.00;101325.13;5071725;28;20032;-80
2022/06/01 07:12:05;;;;;;;;;;;;;;;23.63;69.99;101334.09;5074715;28;20027;-80
2022/06/01 07:14:31;;;;;;;5.57;5.05;;;;;;;23.62;69.99;101331.41;5063710;28;19929;-80
2022/06/01 07:17:00;;;;;;;;;;;;;;;23.64;70.06;101335.88;5070770;28;20051;-80
2022/06/01 07:19:26;;;;;;;5.93;5.32;;;;;;;23.62;70.05;101335.00;5067384;28;20455;-79
2022/06/01 07:21:52;;;;;;;5.93;5.15;;;;;;;23.55;70.12;101331.34;5083140;28;20028;-80
2022/06/01 07:24:17;;;;;;;;;;;;;;;23.67;70.26;101340.38;5077462;28;20074;-81
2022/06/01 07:26:44;;;;;;;5.82;5.10;;;;;;;23.61;70.21;101329.66;5077199;28;19912;-81
2022/06/01 07:29:10;;;;;;;5.40;4.90;;;;;;;23.56;70.32;101335.81;5072309;28;20032;-80
2022/06/01 07:31:37;;;;;;;;;;;;;;;23.66;70.29;101338.56;5070709;28;20031;-81
2022/06/01 07:34:03;;;;;;;6.63;5.27;;;;;;;23.62;70.39;101328.75;5073687;28;19931;-80
2022/06/01 07:36:29;;;;;;;5.65;5.05;;;;;;;23.66;70.41;101343.91;5074916;28;20117;-80
2022/06/01 07:44:41;;;;;;;8.10;6.05;;;;;;;23.63;70.64;101349.22;5043786;28;20028;-80
2022/06/01 07:47:08;;;;;;;5.90;5.32;;;;;;;23.65;70.38;101348.34;5071458;28;20503;-80
2022/06/01 07:49:34;;;;;;;7.15;6.43;;;;;;;23.69;70.68;101352.84;5064727;28;20021;-80
2022/06/01 07:51:59;;;;;;;;;;;;;;;23.71;70.76;101358.19;5055321;28;20036;-80
2022/06/01 07:54:25;;;;;;;8.82;5.82;;;;;;;23.71;70.49;101360.84;5068178;28;19909;-80
2022/06/01 07:56:51;;;;;;;9.10;6.20;;;;;;;23.72;70.88;101363.50;5075068;28;20027;-81
2022/06/01 07:59:16;;;;;;;;;;;;;;;23.75;70.84;101363.56;5075035;28;20248;-79
2022/06/01 08:01:42;;;;;;;8.80;6.80;;;;;;;23.69;70.67;101359.94;5074638;28;19951;-80
2022/06/01 08:04:08;;;;;;;;;;;;;;;23.75;70.86;101370.69;5076006;28;20078;-80
2022/06/01 08:06:35;;;;;;;9.88;6.18;;;;;;;23.74;70.87;101377.75;5068053;28;19943;-79
2022/06/01 08:09:01;;;;;;;6.85;6.10;;;;;;;23.71;70.77;101371.53;5070588;28;20474;-79
2022/06/01 08:14:13;;;;;;;7.00;6.30;;;;;;;23.72;70.96;101384.84;5073151;28;20300;-80
2022/06/01 08:16:39;;;;;;;7.53;6.00;;;;;;;23.72;70.80;101389.28;5073692;28;20031;-81
2022/06/01 08:19:06;;;;;;;7.10;6.15;;;;;;;23.66;70.96;101383.91;5064547;28;20029;-80
2022/06/01 08:21:33;;;;;;;7.32;6.38;;;;;;;23.65;70.90;101384.78;5066025;28;20501;-80
2022/06/01 08:23:58;;;;;;;7.15;6.13;;;;;;;23.72;71.08;101386.63;5065522;28;20103;-80
2022/06/01 08:26:27;;;;;;;;;;;;;;;23.71;70.90;101387.53;5068172;28;20040;-80
2022/06/01 08:28:53;;;;;;;8.65;6.20;;;;;;;23.73;70.91;101389.31;5054073;28;19916;-80
2022/06/01 08:31:18;;;;;;;;;;;;;;;23.75;70.95;101395.56;5067168;28;20033;-80
2022/06/01 08:33:44;;;;;;;8.05;6.00;;;;;;;23.62;71.03;101372.34;5071455;28;19916;-80
2022/06/01 08:36:10;;;;;;;;;;;;;;;23.74;70.95;101396.41;5061328;28;20024;-80
2022/06/01 08:38:35;;;;;;;8.88;6.57;;;;;;;23.69;71.16;101387.50;5067589;28;19916;-80
2022/06/01 08:41:03;;;;;;;;;;;;;;;23.74;70.99;101391.09;5060726;28;20036;-80
2022/06/01 08:43:33;;;;;;;9.88;6.85;;;;;;;23.76;70.99;101394.69;5056725;28;19974;-80
2022/06/01 08:46:00;;;;;;;9.40;6.63;;;;;;;23.72;70.95;101387.50;5068223;28;20028;-80
2022/06/01 08:48:31;;;;;;;7.57;6.78;;;;;;;23.76;70.95;101400.03;5086029;28;20019;-80
2022/06/01 08:50:57;;;;;;;8.65;6.60;;;;;;;23.78;71.04;101395.63;5063816;28;20037;-80
2022/06/01 08:53:23;;;;;;;;;;;;;;;23.81;70.92;101385.84;5061491;28;20040;-80
2022/06/01 08:55:52;;;;;;;9.57;7.22;;;;;;;23.73;70.78;101373.31;5066349;28;20019;-80
2022/06/01 08:58:23;;;;;;;10.35;7.07;;;;;;;23.73;70.87;101375.09;5070682;28;20031;-80
2022/06/01 09:00:59;;;;;;;8.73;6.88;;;;;;;23.81;70.86;101388.53;5069867;28;20016;-79
2022/06/01 09:03:36;;;;;;;9.50;7.17;;;;;;;23.76;71.08;101380.47;5070132;28;20052;-80
2022/06/01 09:06:26;;;;;;;9.00;6.95;;;;;;;23.76;70.86;101377.81;5070471;28;20116;-80
2022/06/01 09:08:57;;;;;;;8.35;7.30;;;;;;;23.82;71.05;101377.00;5070481;28;20021;-80
2022/06/01 09:11:37;;;;;;;7.60;6.80;;;;;;;23.83;71.12;101386.75;5068053;28;20543;-80
2022/06/01 09:14:09;;;;;;;9.02;7.03;;;;;;;23.85;70.98;101372.56;5070860;28;20402;-80
2022/06/01 09:16:38;;;;;;;10.23;6.95;;;;;;;23.85;70.91;101377.88;5068078;28;20047;-80
2022/06/01 09:19:06;;;;;;;7.78;6.88;;;;;;;23.84;71.14;101381.44;5060138;28;20522;-80
2022/06/01 09:24:39;;;;;;;8.48;6.90;;;;;;;23.82;71.08;101374.31;5068449;28;20040;-79
2022/06/01 09:27:48;;;;;;;7.38;6.65;;;;;;;23.87;70.95;101378.78;5065204;28;20017;-79
2022/06/01 09:30:43;;;;;;;7.88;6.72;;;;;;;23.87;71.13;101383.25;5065385;28;20501;-80
2022/06/01 09:33:32;;;;;;;7.47;6.72;;;;;;;23.87;71.18;101383.25;5079311;28;20028;-80
2022/06/01 09:36:09;;;;;;;9.07;7.55;;;;;;;23.87;71.04;101384.13;5053000;28;20029;-80
2022/06/01 09:38:46;;;;;;;8.48;7.60;;;;;;;23.90;70.99;101389.50;5067305;28;20025;-81
2022/06/01 09:41:38;;;;;;;8.25;7.30;;;;;;;23.92;70.88;101386.88;5070259;28;20039;-80
2022/06/01 09:44:05;;;;;;;8.07;6.88;;;;;;;23.79;71.06;101369.81;5069680;28;20078;-80
2022/06/01 09:46:37;;;;;;;8.52;6.88;;;;;;;23.87;71.14;101373.47;5060125;28;20027;-80
2022/06/01 09:49:09;;;;;;;8.18;7.10;;;;;;;23.84;71.02;101367.22;5069824;28;20040;-80
2022/06/01 09:51:39;;;;;;;8.40;7.10;;;;;;;23.92;71.18;101381.53;5076009;28;20099;-80
2022/06/01 09:54:15;;;;;;;8.27;6.93;;;;;;;23.95;70.94;101386.88;5061513;28;20031;-81
2022/06/01 09:56:47;;;;;;;11.20;7.20;;;;;;;23.95;71.16;101384.22;5069443;28;20455;-80
2022/06/01 10:08:16;;;;;;;10.93;7.82;;;;;;;23.94;71.47;101374.44;5072228;28;20020;-80
2022/06/01 10:10:59;;;;;;;9.50;7.55;;;;;;;23.98;71.34;101374.47;5088932;28;20446;-81
2022/06/01 10:13:37;;;;;;;9.35;7.57;;;;;;;24.01;71.57;101370.03;5069194;28;20055;-80
2022/06/01 10:16:31;;;;;;;10.77;7.22;;;;;;;23.98;71.31;101365.53;5060843;28;20123;-80
2022/06/01 10:18:59;;;;;;;10.02;7.22;;;;;;;24.00;71.47;101360.22;5067768;28;20028;-80
2022/06/01 10:21:29;;;;;;;8.90;7.25;;;;;;;23.98;71.72;101360.22;5059521;28;20036;-80
2022/06/01 10:24:01;;;;;;;10.73;7.53;;;;;;;23.92;71.53;101346.84;5067489;28;20071;-80
2022/06/01 10:26:34;;;;;;;11.30;8.00;;;;;;;24.06;72.00;101363.84;5068726;28;20024;-80
2022/06/01 10:29:06;;;;;;;8.85;7.68;;;;;;;23.91;72.21;101339.72;5069950;28;20098;-81
2022/06/01 10:31:43;;;;;;;9.65;7.70;;;;;;;24.05;71.88;101358.50;5071062;28;20133;-80
2022/06/01 10:34:32;;;;;;;10.65;7.85;;;;;;;24.10;71.73;101364.78;5065645;28;20620;-80
2022/06/01 10:37:27;;;;;;;8.95;7.28;;;;;;;24.13;71.64;101375.44;5062633;28;20040;-80
2022/06/01 10:40:02;;;;;;;11.23;8.00;;;;;;;24.10;72.69;101376.31;5066627;28;20025;-81
2022/06/01 10:45:34;;;;;;;10.63;7.47;;;;;;;24.13;72.12;101365.69;5067048;28;20112;-80
2022/06/01 10:48:11;;;;;;;10.45;8.40;;;;;;;24.14;72.25;101369.25;5052739;28;20025;-80
2022/06/01 10:51:06;;;;;;;9.90;7.47;;;;;;;24.16;72.29;101364.81;5058964;28;20036;-79
2022/06/01 10:53:35;;;;;;;9.23;7.85;;;;;;;24.16;72.25;101368.38;5065146;28;20027;-81
2022/06/01 10:56:00;;;;;;;12.15;8.02;;;;;;;24.14;71.81;101358.56;5065464;28;20032;-80
2022/06/01 10:58:26;;;;;;;;;;;;;;;24.19;71.98;101367.50;5073985;28;20397;-81
2022/06/01 11:01:19;;;;;;;13.00;7.50;;;;;;;24.18;71.77;101361.28;5074082;28;20453;-80
2022/06/01 11:03:56;;;;;;;8.95;7.80;;;;;;;24.21;71.62;101364.84;5063506;28;20028;-81
2022/06/01 11:06:58;;;;;;;11.70;8.02;;;;;;;24.21;71.76;101357.72;5063419;28;20028;-80
2022/06/01 11:09:40;;;;;;;9.10;7.95;;;;;;;24.22;71.81;101347.97;5045207;28;20041;-80
2022/06/01 11:12:30;;;;;;;10.15;7.82;;;;;;;24.20;71.72;101353.28;5063498;28;20090;-81
2022/06/01 11:15:25;;;;;;;9.98;7.85;;;;;;;24.24;71.67;101348.88;5072861;28;20048;-81
2022/06/01 11:18:04;;;;;;;10.05;7.55;;;;;;;24.23;71.82;101353.28;5066361;28;20111;-82
2022/06/01 11:20:54;;;;;;;9.90;8.15;;;;;;;24.24;71.77;101349.75;5062483;28;20016;-81
2022/06/01 11:23:19;;;;;;;9.30;7.65;;;;;;;24.26;71.75;101352.44;5063139;28;20028;-82
2022/06/01 11:25:48;;;;;;;;;;;;;;;24.29;71.54;101352.44;5057876;28;20025;-82
2022/06/01 11:28:27;;;;;;;10.70;8.15;;;;;;;24.27;72.04;101349.75;5084989;28;19912;-81
2022/06/01 11:31:19;;;;;;;10.60;7.75;;;;;;;24.29;71.82;101345.31;5066779;28;20021;-81
2022/06/01 11:34:05;;;;;;;10.45;8.10;;;;;;;24.17;71.78;101316.81;5071933;28;20552;-81
2022/06/01 11:36:44;;;;;;;10.07;8.00;;;;;;;24.28;71.82;101342.69;5072488;28;20451;-81
2022/06/01 11:39:21;;;;;;;10.52;8.07;;;;;;;24.30;71.56;101339.13;5076575;28;20032;-81
2022/06/01 11:42:10;;;;;;;10.70;8.05;;;;;;;24.33;71.64;101338.25;5061782;28;20025;-81
2022/06/01 11:44:38;;;;;;;8.80;7.82;;;;;;;24.32;71.96;101337.34;5052595;28;20020;-80
2022/06/01 11:47:16;;;;;;;11.15;8.15;;;;;;;24.32;71.79;101329.34;5068980;28;20051;-81
2022/06/01 11:49:45;;;;;;;9.32;7.68;;;;;;;24.33;72.08;101324.91;5052354;28;20013;-81
2022/06/01 11:52:16;;;;;;;10.80;8.23;;;;;;;24.34;72.22;101327.59;5057636;28;20059;-81
2022/06/01 11:54:42;;;;;;;10.98;8.20;;;;;;;24.27;72.20;101298.16;5071632;28;20426;-81
2022/06/01 11:57:24;;;;;;;;;;;;;;;24.39;71.97;101311.59;5068851;28;20072;-81
2022/06/01 12:00:14;;;;;;;10.73;8.20;;;;;;;24.31;72.02;101299.97;5059646;28;19965;-81
2022/06/01 12:02:40;;;;;;;9.35;8.00;;;;;;;24.38;71.84;101301.78;5071491;28;20453;-81
2022/06/01 12:05:25;;;;;;;;;;;;;;;24.40;71.87;101302.69;5073533;28;20026;-81
2022/06/01 12:07:55;;;;;;;10.75;7.90;;;;;;;24.37;72.05;101300.00;5065058;28;19908;-81
2022/06/01 12:10:29;;;;;;;9.90;7.82;;;;;;;24.38;71.84;101293.78;5073012;28;20035;-80
2022/06/01 12:12:55;;;;;;;8.90;7.88;;;;;;;24.40;72.00;101297.34;5071128;28;20071;-81
2022/06/01 12:15:29;;;;;;;;;;;;;;;24.42;71.83;101289.34;5073211;28;20090;-81
2022/06/01 12:18:13;;;;;;;9.90;8.05;;;;;;;24.30;71.89;101285.75;5071689;28;19912;-81
2022/06/01 12:20:39;;;;;;;10.88;8.02;;;;;;;24.44;71.62;101299.16;5072903;28;20032;-81